Sao Joao Nepomuceno, Brazil
Current Conditions -  °F | °C
As of 11:00 AM on Wednesday 26 Nov 2014 (Local Time) from SBBQ Reporting Station
Broken Clouds Broken Clouds  
Wind Chill: 73°   Ceiling: 1400
Heat Index: 73°   Visibility: 6mi
Dew Point: 66°   Wind: 10mph
Humidity: 78%   Direction: 350°N
Pressure: 30.06"   Gusts: NA
Location:  21.54°S, 43.01°W
Report Text: SBBQ 261300Z 35009KT 9999 BKN014 BKN030 23/19 Q1018
Loading
Personal Weather Stations






























Interactive Weather Map New forecast layout! Learn more

10-Day Weather Forecast

Advertisements
Track Severe Weather on mobile